Archival Weather

Norman Y Mineta San Jose Intl

San Jose, California (KSJC)

Report from: Saturday, September 30, 2023 9:53 AM PDT
Current time: Thursday, July 18, 2024 8:34 PM PDT

Current weather – Weather history – Daily summaries
Weather forecast

Temperature16.1°C (61.0°F)
Dew point11.1°C (52.0°F)
Winds 5 kts (2.6 m/s, 5.8 mph) Northwest (310°)
Visibility10 mi. (16.1 km)
Clouds Few clouds 900 ft. (274 m)
Ceiling: Broken clouds 2,000 ft. (610 m)
Overcast 3,500 ft. (1,067 m)
Altimeter29.81 in.Hg (1009 mB)
Relative humidity72 %
Density altitude443 ft. (135 m)
Sea-level pressure101.0 kPa (1010 mB, 29.81 in.Hg)
Remarks Automated weather observing station with precipitation discriminator
Flight conditions Marginal Visual Meteorological Conditions
Raw dataKSJC 301653Z 31005KT 10SM FEW009 BKN020 OVC035 16/11 A2981 RMK AO2 SLP095 T01610111
An error has occurred. This application may no longer respond until reloaded. Reload 🗙